Time;durP1;ratioP1;P1;durP2;ratioP2;P2;SDS_P1;SDS_P2;PMS_P1;PMS_P2;Temp;Humidity;BMP_temperature;BMP_pressure;BME280_temperature;BME280_humidity;BME280_pressure;Samples;Min_cycle;Max_cycle;Signal;HPM_P1;HPM_P2
2022/06/03 00:01:41;;;;;;;1.80;1.60;;;17.70;55.30;;;;;;4970579;28;20470;-44
2022/06/03 00:04:44;;;;;;;1.10;1.00;;;17.60;55.30;;;;;;4954418;28;20465;-45
2022/06/03 00:07:49;;;;;;;2.30;1.40;;;17.60;55.30;;;;;;4965892;28;20462;-45
2022/06/03 00:10:42;;;;;;;1.30;1.20;;;17.60;55.50;;;;;;4968908;28;20513;-45
2022/06/03 00:13:42;;;;;;;2.07;1.87;;;17.50;55.60;;;;;;4948925;28;21157;-45
2022/06/03 00:16:45;;;;;;;1.70;1.60;;;17.50;55.80;;;;;;4936272;28;21033;-45
2022/06/03 00:20:01;;;;;;;3.20;1.30;;;17.40;56.00;;;;;;4968465;28;20976;-45
2022/06/03 00:23:14;;;;;;;1.20;1.20;;;17.40;56.10;;;;;;4873141;29;20581;-45
2022/06/03 00:26:06;;;;;;;1.10;1.00;;;17.30;56.20;;;;;;4967639;28;20505;-44
2022/06/03 00:29:15;;;;;;;1.47;1.37;;;17.30;56.40;;;;;;4966931;28;20462;-45
2022/06/03 00:32:10;;;;;;;2.20;1.60;;;17.20;56.40;;;;;;4968273;28;21003;-45
2022/06/03 00:35:01;;;;;;;1.40;1.30;;;17.20;56.60;;;;;;4968844;28;20526;-45
2022/06/03 00:37:31;;;;;;;1.80;1.70;;;17.20;56.90;;;;;;4952319;28;20850;-45
2022/06/03 00:40:10;;;;;;;1.50;1.40;;;17.10;56.90;;;;;;4968602;28;20550;-45
2022/06/03 00:43:18;;;;;;;3.53;1.60;;;17.10;57.10;;;;;;4969455;28;20470;-45
2022/06/03 00:45:59;;;;;;;1.70;1.60;;;17.10;57.20;;;;;;4906548;29;20536;-45
2022/06/03 00:48:40;;;;;;;1.63;1.53;;;17.10;57.30;;;;;;4946628;28;20537;-45
2022/06/03 00:51:12;;;;;;;1.60;1.50;;;17.00;57.50;;;;;;4969559;28;20454;-45
2022/06/03 00:53:51;;;;;;;2.00;1.80;;;17.00;57.60;;;;;;4964316;28;20466;-45
2022/06/03 00:56:37;;;;;;;1.43;1.33;;;17.10;56.80;;;;;;4968032;28;20472;-45
2022/06/03 00:59:32;;;;;;;2.20;1.63;;;17.10;56.60;;;;;;4964526;28;20883;-45
2022/06/03 01:02:37;;;;;;;1.83;1.40;;;17.10;56.90;;;;;;4967419;28;20465;-45
2022/06/03 01:05:36;;;;;;;2.43;1.47;;;17.10;56.90;;;;;;4933285;28;20505;-45
2022/06/03 01:08:14;;;;;;;1.53;1.43;;;17.00;56.60;;;;;;4968552;28;20465;-45
2022/06/03 01:10:55;;;;;;;1.67;1.57;;;17.00;57.10;;;;;;4966440;28;20512;-45
2022/06/03 01:13:34;;;;;;;2.43;1.23;;;17.10;56.80;;;;;;4965967;28;21276;-45
2022/06/03 01:16:30;;;;;;;1.80;1.70;;;17.10;56.90;;;;;;4966323;28;20480;-44
2022/06/03 01:19:25;;;;;;;1.67;1.57;;;17.00;56.80;;;;;;4961192;28;20462;-44
2022/06/03 01:21:55;;;;;;;1.43;1.30;;;17.00;56.20;;;;;;4964943;28;20462;-45
2022/06/03 01:24:36;;;;;;;1.90;1.80;;;17.00;57.00;;;;;;4967028;28;20470;-44
2022/06/03 01:27:06;;;;;;;1.50;1.37;;;17.00;57.20;;;;;;4965257;28;20476;-45
2022/06/03 01:29:37;;;;;;;2.27;1.63;;;17.00;56.90;;;;;;4947085;28;20552;-45
2022/06/03 01:32:19;;;;;;;1.70;1.60;;;17.00;56.50;;;;;;4965075;28;20500;-45
2022/06/03 01:34:48;;;;;;;1.60;1.50;;;17.00;56.00;;;;;;4967403;28;20553;-44
2022/06/03 01:37:30;;;;;;;1.70;1.60;;;17.00;56.40;;;;;;4946778;28;20938;-45
2022/06/03 01:40:15;;;;;;;1.90;1.80;;;17.10;55.70;;;;;;4967194;28;20823;-45
2022/06/03 01:43:20;;;;;;;1.53;1.43;;;17.10;56.10;;;;;;4967055;28;20465;-44
2022/06/03 01:45:46;;;;;;;2.60;1.60;;;17.10;56.10;;;;;;4966253;28;20468;-45
2022/06/03 01:48:39;;;;;;;1.27;1.27;;;17.10;56.30;;;;;;4969277;28;20476;-45
2022/06/03 01:51:30;;;;;;;1.73;1.63;;;17.10;56.10;;;;;;4943203;28;20470;-45
2022/06/03 01:54:19;;;;;;;1.00;1.00;;;17.10;55.70;;;;;;4948021;28;20843;-44
2022/06/03 01:56:55;;;;;;;1.70;1.60;;;17.10;55.60;;;;;;4966521;28;20565;-45
2022/06/03 01:59:29;;;;;;;1.70;1.60;;;17.10;56.00;;;;;;4963832;28;20570;-45
2022/06/03 02:02:17;;;;;;;1.70;1.60;;;17.10;55.50;;;;;;4965469;28;20470;-45
2022/06/03 02:05:12;;;;;;;1.67;1.57;;;17.10;55.70;;;;;;4964617;28;20461;-45
2022/06/03 02:07:57;;;;;;;1.67;1.57;;;17.10;56.00;;;;;;4964506;28;21294;-45
2022/06/03 02:10:39;;;;;;;2.10;1.93;;;17.10;56.00;;;;;;4964359;28;20549;-45
2022/06/03 02:13:24;;;;;;;3.90;1.33;;;17.10;57.00;;;;;;4947540;28;20576;-45
2022/06/03 02:16:15;;;;;;;2.90;1.50;;;17.10;57.10;;;;;;4965041;28;20990;-44
2022/06/03 02:19:09;;;;;;;3.13;1.40;;;17.10;56.30;;;;;;4962657;28;20467;-45
2022/06/03 02:22:06;;;;;;;1.70;1.60;;;17.10;56.40;;;;;;4971679;28;20458;-45
2022/06/03 02:24:58;;;;;;;1.70;1.60;;;17.10;56.50;;;;;;4952288;28;20472;-45
2022/06/03 02:28:22;;;;;;;1.40;1.30;;;17.10;56.50;;;;;;4969862;28;20481;-45
2022/06/03 02:31:07;;;;;;;1.87;1.77;;;17.10;56.70;;;;;;4903538;29;20572;-45
2022/06/03 02:33:43;;;;;;;1.53;1.43;;;17.00;56.90;;;;;;4903560;29;20496;-45
2022/06/03 02:36:40;;;;;;;1.70;1.60;;;17.00;57.60;;;;;;4955026;28;20464;-44
2022/06/03 02:39:16;;;;;;;2.30;2.10;;;17.10;57.40;;;;;;4964594;28;20466;-45
2022/06/03 02:42:12;;;;;;;1.80;1.70;;;17.00;57.60;;;;;;4947296;28;20477;-45
2022/06/03 02:45:03;;;;;;;1.77;1.67;;;17.00;57.80;;;;;;4964117;28;20490;-45
2022/06/03 02:48:11;;;;;;;1.67;1.57;;;17.00;57.70;;;;;;4966529;28;20840;-45
2022/06/03 02:50:53;;;;;;;1.80;1.70;;;16.90;58.00;;;;;;4965649;28;20472;-45
2022/06/03 02:53:54;;;;;;;2.10;2.00;;;16.90;58.30;;;;;;4967302;28;20482;-45
2022/06/03 02:56:50;;;;;;;2.03;1.50;;;16.90;58.40;;;;;;4966868;28;21316;-45
2022/06/03 02:59:24;;;;;;;1.77;1.67;;;16.90;58.60;;;;;;4952639;28;20458;-44
2022/06/03 03:02:17;;;;;;;1.80;1.70;;;16.80;59.00;;;;;;4964807;28;20958;-45
2022/06/03 03:05:21;;;;;;;2.00;1.80;;;16.80;58.80;;;;;;4955167;28;20517;-44
2022/06/03 03:08:07;;;;;;;1.63;1.53;;;16.80;58.90;;;;;;4966721;28;20548;-45
2022/06/03 03:11:04;;;;;;;1.77;1.67;;;16.80;59.30;;;;;;4964992;28;20466;-45
2022/06/03 03:13:49;;;;;;;2.37;2.17;;;16.70;59.20;;;;;;4965830;28;20494;-44
2022/06/03 03:17:01;;;;;;;2.10;2.00;;;16.70;59.40;;;;;;4970011;28;20469;-45
2022/06/03 03:20:16;;;;;;;2.77;1.80;;;16.60;59.50;;;;;;4966647;28;20470;-45
2022/06/03 03:23:17;;;;;;;1.97;1.87;;;16.60;59.70;;;;;;4962655;28;20466;-44
2022/06/03 03:26:16;;;;;;;2.10;2.00;;;16.60;59.90;;;;;;4952016;28;20465;-45
2022/06/03 03:29:01;;;;;;;2.50;2.20;;;16.50;60.10;;;;;;4967755;28;20466;-45
2022/06/03 03:31:55;;;;;;;3.17;2.47;;;16.50;60.20;;;;;;4968616;28;20462;-45
2022/06/03 03:34:28;;;;;;;2.20;2.00;;;16.50;60.40;;;;;;4967061;28;21231;-44
2022/06/03 03:36:58;;;;;;;1.80;1.70;;;16.50;60.40;;;;;;4969678;28;20465;-45
2022/06/03 03:40:08;;;;;;;2.40;1.90;;;16.50;60.50;;;;;;4969444;28;20465;-44
2022/06/03 03:42:51;;;;;;;1.70;1.60;;;16.40;60.50;;;;;;4967132;28;20469;-44
2022/06/03 03:45:45;;;;;;;2.43;2.23;;;16.40;60.80;;;;;;4966645;28;20823;-45
2022/06/03 03:48:29;;;;;;;2.20;1.93;;;16.40;60.90;;;;;;4967836;28;20458;-45
2022/06/03 03:51:08;;;;;;;3.20;1.90;;;16.30;61.00;;;;;;4967998;28;20464;-45
2022/06/03 03:54:12;;;;;;;2.47;2.07;;;16.30;61.10;;;;;;4967665;28;20492;-45
2022/06/03 03:56:45;;;;;;;2.73;2.53;;;16.30;61.20;;;;;;4966246;28;20462;-45
2022/06/03 03:59:33;;;;;;;2.40;2.07;;;16.20;61.50;;;;;;4968842;28;20533;-45
2022/06/03 04:02:06;;;;;;;2.93;2.33;;;16.20;61.60;;;;;;4951834;28;20956;-44
2022/06/03 04:04:55;;;;;;;2.10;1.90;;;16.20;61.80;;;;;;4961276;28;20568;-44
2022/06/03 04:07:43;;;;;;;2.13;2.03;;;16.20;61.90;;;;;;4968134;28;20465;-45
2022/06/03 04:10:30;;;;;;;1.90;1.80;;;16.20;61.40;;;;;;4967059;28;21188;-44
2022/06/03 04:13:39;;;;;;;1.80;1.70;;;16.20;61.50;;;;;;4966469;28;20495;-45
2022/06/03 04:16:25;;;;;;;2.13;1.93;;;16.20;61.70;;;;;;4962547;28;20466;-45
2022/06/03 04:19:13;;;;;;;2.03;1.80;;;16.30;61.40;;;;;;4969093;28;20978;-45
2022/06/03 04:21:51;;;;;;;4.23;1.93;;;16.30;60.60;;;;;;4969258;28;20466;-44
2022/06/03 04:24:51;;;;;;;2.30;1.70;;;16.30;60.30;;;;;;4967885;28;20462;-44
2022/06/03 04:27:31;;;;;;;3.10;1.67;;;16.40;59.90;;;;;;4944089;28;20979;-44
2022/06/03 04:30:07;;;;;;;1.80;1.70;;;16.40;59.80;;;;;;4965791;28;20469;-44
2022/06/03 04:33:07;;;;;;;3.40;1.87;;;16.40;59.90;;;;;;4968264;28;20496;-45
2022/06/03 04:36:04;;;;;;;1.90;1.80;;;16.50;59.40;;;;;;4966568;28;20470;-45
2022/06/03 04:38:50;;;;;;;2.30;1.93;;;16.60;59.10;;;;;;4966650;28;20474;-44
2022/06/03 04:41:19;;;;;;;2.80;1.90;;;16.60;58.70;;;;;;4951274;28;20460;-45
2022/06/03 04:44:18;;;;;;;2.03;1.47;;;16.70;58.30;;;;;;4967685;28;20462;-45
2022/06/03 04:47:19;;;;;;;2.20;1.77;;;16.80;58.20;;;;;;4968345;28;20477;-45
2022/06/03 04:50:08;;;;;;;2.73;1.70;;;16.80;57.70;;;;;;4966761;28;20472;-44
2022/06/03 04:53:15;;;;;;;1.67;1.57;;;16.90;57.30;;;;;;4964492;28;20584;-45
2022/06/03 04:56:20;;;;;;;1.70;1.60;;;16.90;57.30;;;;;;4966576;28;20458;-45
2022/06/03 04:59:10;;;;;;;1.90;1.63;;;17.00;57.40;;;;;;4964742;28;20499;-44
2022/06/03 05:01:55;;;;;;;2.50;1.30;;;17.10;57.80;;;;;;4924735;28;20484;-45
2022/06/03 05:04:46;;;;;;;1.70;1.60;;;17.10;58.10;;;;;;4965049;28;20470;-45
2022/06/03 05:07:47;;;;;;;1.80;1.70;;;17.20;57.80;;;;;;4966639;28;20468;-45
2022/06/03 05:11:06;;;;;;;1.83;1.73;;;17.30;57.20;;;;;;4948530;28;20489;-45
2022/06/03 05:14:10;;;;;;;2.60;2.23;;;17.30;56.00;;;;;;4948290;28;20504;-45
2022/06/03 05:16:42;;;;;;;1.53;1.43;;;17.40;55.60;;;;;;4950551;28;20458;-45
2022/06/03 05:19:25;;;;;;;1.63;1.53;;;17.50;55.40;;;;;;4966091;28;20466;-44
2022/06/03 05:22:19;;;;;;;2.03;1.70;;;17.50;55.40;;;;;;4963706;28;20483;-45
2022/06/03 05:25:11;;;;;;;1.80;1.70;;;17.60;55.40;;;;;;4966471;28;20468;-45
2022/06/03 05:27:37;;;;;;;1.60;1.50;;;17.60;55.40;;;;;;4966646;28;20557;-42
2022/06/03 05:30:41;;;;;;;1.60;1.50;;;17.60;55.30;;;;;;4948861;28;20459;-43
2022/06/03 05:33:20;;;;;;;3.23;1.43;;;17.60;55.70;;;;;;4972627;28;20477;-46
2022/06/03 05:36:10;;;;;;;2.43;2.10;;;17.70;55.10;;;;;;4965617;28;20842;-42
2022/06/03 05:38:56;;;;;;;3.80;1.50;;;17.80;54.70;;;;;;4966930;28;20458;-43
2022/06/03 05:45:04;;;;;;;2.40;1.60;;;17.90;55.10;;;;;;4965725;28;20485;-43
2022/06/03 05:47:41;;;;;;;2.50;1.70;;;17.90;54.10;;;;;;4967332;28;20725;-47
2022/06/03 05:50:17;;;;;;;1.60;1.50;;;17.90;54.10;;;;;;4952500;28;20442;-47
2022/06/03 05:52:56;;;;;;;1.67;1.57;;;17.90;54.00;;;;;;4967734;28;20492;-48
2022/06/03 05:55:58;;;;;;;1.90;1.80;;;18.00;54.30;;;;;;4967204;28;20468;-48
2022/06/03 05:58:58;;;;;;;1.33;1.27;;;18.00;55.00;;;;;;4921693;28;20997;-45
2022/06/03 06:01:47;;;;;;;2.10;1.57;;;18.00;54.30;;;;;;4961194;28;20554;-45
2022/06/03 06:04:26;;;;;;;2.00;1.90;;;18.10;53.90;;;;;;4968451;28;20462;-46
2022/06/03 06:07:22;;;;;;;2.10;2.00;;;18.10;54.10;;;;;;4958884;28;20903;-46
2022/06/03 06:10:14;;;;;;;2.03;1.80;;;18.10;53.70;;;;;;4966657;28;20470;-46
2022/06/03 06:12:45;;;;;;;1.40;1.27;;;18.20;53.70;;;;;;4975914;28;20462;-44
2022/06/03 06:15:31;;;;;;;1.70;1.60;;;18.20;53.80;;;;;;4972628;28;20731;-45
2022/06/03 06:17:58;;;;;;;3.83;1.83;;;18.30;53.00;;;;;;4950034;28;21001;-45
2022/06/03 06:20:54;;;;;;;1.67;1.50;;;18.30;52.90;;;;;;4967123;28;20849;-45
2022/06/03 06:23:30;;;;;;;1.80;1.70;;;18.40;52.60;;;;;;4966855;28;21277;-45
2022/06/03 06:26:12;;;;;;;2.47;1.80;;;18.40;52.80;;;;;;4961027;28;20453;-45
2022/06/03 06:28:57;;;;;;;1.70;1.53;;;18.50;52.30;;;;;;4968418;28;20502;-45
2022/06/03 06:31:27;;;;;;;2.13;1.97;;;18.50;52.40;;;;;;4964319;28;20468;-45
2022/06/03 06:34:05;;;;;;;6.57;2.03;;;18.50;52.60;;;;;;4950074;28;20914;-45
2022/06/03 06:37:13;;;;;;;3.60;1.77;;;18.60;52.90;;;;;;4965047;28;20481;-45
2022/06/03 06:40:12;;;;;;;1.47;1.37;;;18.70;52.80;;;;;;4940519;28;20469;-45
2022/06/03 06:43:00;;;;;;;2.60;1.60;;;18.80;52.80;;;;;;4959281;28;20537;-44
2022/06/03 06:45:36;;;;;;;5.43;1.40;;;18.80;52.70;;;;;;4969467;28;20458;-46
2022/06/03 06:48:09;;;;;;;5.33;1.90;;;18.90;52.30;;;;;;4950610;28;20456;-47
2022/06/03 06:50:48;;;;;;;3.90;1.40;;;18.90;51.30;;;;;;4967794;28;20815;-47
2022/06/03 06:53:31;;;;;;;2.87;1.67;;;18.90;51.40;;;;;;4952524;28;20497;-47
2022/06/03 06:56:18;;;;;;;2.03;1.60;;;18.90;51.20;;;;;;4970003;28;21837;-47
2022/06/03 06:58:56;;;;;;;2.63;1.63;;;18.90;51.40;;;;;;4968454;28;20529;-44
2022/06/03 07:02:22;;;;;;;3.63;1.33;;;18.90;51.50;;;;;;4972995;28;20499;-46
2022/06/03 07:05:16;;;;;;;5.83;2.37;;;18.90;51.50;;;;;;4911888;28;20468;-44
2022/06/03 07:07:54;;;;;;;2.10;1.70;;;19.00;51.30;;;;;;4963254;28;20569;-45
2022/06/03 07:10:27;;;;;;;3.07;1.67;;;19.00;51.70;;;;;;4955230;28;20472;-45
2022/06/03 07:13:09;;;;;;;1.83;1.73;;;19.00;51.70;;;;;;4971873;28;20460;-45
2022/06/03 07:16:08;;;;;;;2.83;1.80;;;19.10;51.20;;;;;;4970105;28;20537;-45
2022/06/03 07:21:59;;;;;;;1.77;1.43;;;19.10;51.60;;;;;;4971612;28;20468;-45
2022/06/03 07:24:38;;;;;;;2.40;1.87;;;19.10;51.70;;;;;;4957069;28;20978;-45
2022/06/03 07:27:40;;;;;;;3.30;1.60;;;19.20;50.90;;;;;;4969261;28;20472;-44
2022/06/03 07:30:26;;;;;;;2.40;1.80;;;19.30;50.80;;;;;;4903870;28;20450;-44
2022/06/03 07:33:06;;;;;;;1.83;1.50;;;19.40;50.40;;;;;;4967932;28;21094;-44
2022/06/03 07:35:54;;;;;;;2.40;1.70;;;19.60;50.50;;;;;;4972172;28;20446;-44
2022/06/03 07:38:33;;;;;;;3.20;1.97;;;19.70;50.30;;;;;;4955000;28;21206;-44
2022/06/03 07:41:14;;;;;;;2.63;1.90;;;19.80;49.80;;;;;;4971831;28;20442;-44
2022/06/03 07:43:46;;;;;;;2.27;1.70;;;20.00;49.50;;;;;;4970067;28;20541;-45
2022/06/03 07:46:22;;;;;;;1.80;1.70;;;20.00;49.20;;;;;;4970725;28;20466;-45
2022/06/03 07:48:50;;;;;;;2.27;1.83;;;20.10;49.10;;;;;;4967700;28;20475;-45
2022/06/03 07:51:17;;;;;;;1.40;1.30;;;20.20;49.70;;;;;;4962774;28;20472;-45
2022/06/03 07:53:54;;;;;;;2.33;1.23;;;20.40;49.20;;;;;;4966144;28;20544;-44
2022/06/03 07:56:25;;;;;;;3.03;1.53;;;20.50;49.10;;;;;;4951771;28;20471;-44
2022/06/03 07:59:02;;;;;;;1.73;1.53;;;20.70;48.70;;;;;;4954066;28;20957;-45
2022/06/03 08:01:35;;;;;;;4.90;2.40;;;20.80;47.90;;;;;;4948128;28;20466;-45
2022/06/03 08:04:05;;;;;;;1.63;1.30;;;20.90;47.80;;;;;;4970842;28;20448;-45
2022/06/03 08:12:12;;;;;;;10.93;2.37;;;21.60;48.00;;;;;;4967614;28;21075;-44
2022/06/03 08:14:39;;;;;;;3.00;2.07;;;21.90;47.30;;;;;;4967505;28;20508;-44
2022/06/03 08:17:09;;;;;;;2.83;1.60;;;22.00;46.60;;;;;;4936223;28;20469;-44
2022/06/03 08:19:37;;;;;;;2.03;1.90;;;22.20;46.70;;;;;;4970611;28;20447;-44
2022/06/03 08:22:08;;;;;;;3.07;1.70;;;22.40;46.60;;;;;;4950445;28;20466;-44
2022/06/03 08:24:40;;;;;;;2.00;1.60;;;22.50;45.90;;;;;;4966429;28;20465;-44
2022/06/03 08:27:24;;;;;;;2.60;1.37;;;22.70;46.00;;;;;;4945136;28;20476;-44
2022/06/03 08:30:11;;;;;;;6.13;2.47;;;22.80;45.80;;;;;;4968491;28;20783;-44
2022/06/03 08:32:47;;;;;;;2.90;2.07;;;23.00;45.40;;;;;;4948839;28;20940;-44
2022/06/03 08:35:21;;;;;;;3.03;1.57;;;23.10;44.80;;;;;;4970504;28;20831;-44
2022/06/03 08:37:58;;;;;;;7.60;2.33;;;23.30;44.80;;;;;;4970205;28;20462;-44
2022/06/03 08:40:50;;;;;;;4.53;2.17;;;23.40;45.00;;;;;;4964797;28;20862;-44
2022/06/03 08:43:35;;;;;;;2.83;2.00;;;23.70;45.10;;;;;;4967269;28;20834;-44
2022/06/03 08:46:27;;;;;;;2.80;2.17;;;23.90;44.20;;;;;;4967056;28;20457;-44
2022/06/03 08:49:01;;;;;;;2.93;2.07;;;24.20;43.90;;;;;;4930815;28;20461;-44
2022/06/03 08:51:45;;;;;;;2.37;2.20;;;24.30;43.90;;;;;;4946418;28;20466;-44
2022/06/03 08:54:20;;;;;;;2.40;2.20;;;24.50;43.70;;;;;;4950518;28;20488;-44
2022/06/03 08:56:51;;;;;;;2.20;2.00;;;24.70;43.30;;;;;;4947198;28;20463;-44
2022/06/03 08:59:25;;;;;;;2.60;1.87;;;24.80;43.30;;;;;;4966441;28;20454;-45
2022/06/03 09:01:55;;;;;;;4.13;2.10;;;25.00;43.20;;;;;;4964376;28;21005;-47
2022/06/03 09:04:25;;;;;;;2.73;2.03;;;25.20;42.90;;;;;;4950948;28;20473;-48
2022/06/03 09:07:11;;;;;;;2.67;1.77;;;25.30;42.30;;;;;;4956070;28;21127;-47
2022/06/03 09:10:05;;;;;;;2.93;1.80;;;25.40;42.20;;;;;;4963027;28;20576;-48
2022/06/03 09:12:32;;;;;;;11.27;2.23;;;25.60;42.20;;;;;;4951981;28;20474;-48
2022/06/03 09:15:12;;;;;;;4.40;2.20;;;25.70;41.90;;;;;;4962407;28;20489;-49
2022/06/03 09:18:04;;;;;;;3.10;1.90;;;25.80;42.20;;;;;;4943744;28;20827;-49
2022/06/03 09:20:36;;;;;;;2.07;1.87;;;26.00;42.10;;;;;;4968490;28;20866;-49
2022/06/03 09:23:10;;;;;;;2.53;2.20;;;26.20;41.60;;;;;;4952045;28;20458;-47
2022/06/03 09:25:42;;;;;;;4.50;2.30;;;26.30;41.40;;;;;;4956700;28;20470;-47
2022/06/03 09:28:15;;;;;;;4.70;2.37;;;26.40;41.20;;;;;;4933863;28;20461;-48
2022/06/03 09:30:45;;;;;;;2.77;1.97;;;26.50;41.20;;;;;;4963813;28;20876;-48
2022/06/03 09:33:15;;;;;;;2.53;2.33;;;26.50;41.20;;;;;;4967434;28;20442;-47
2022/06/03 09:35:45;;;;;;;4.97;2.43;;;26.50;40.80;;;;;;4949179;28;20508;-49
2022/06/03 09:38:14;;;;;;;3.40;2.10;;;26.70;40.90;;;;;;4963214;28;20457;-48
2022/06/03 09:40:44;;;;;;;2.20;2.10;;;26.90;40.90;;;;;;4966349;28;20913;-47
2022/06/03 09:43:22;;;;;;;3.90;2.70;;;27.00;40.60;;;;;;4967020;28;20468;-48
2022/06/03 09:45:55;;;;;;;4.90;3.20;;;27.30;40.60;;;;;;4963573;28;20453;-47
2022/06/03 09:48:27;;;;;;;4.57;2.53;;;27.50;40.30;;;;;;4964146;28;20457;-47
2022/06/03 09:50:57;;;;;;;3.10;2.00;;;27.90;40.10;;;;;;4966986;28;20512;-47
2022/06/03 09:53:30;;;;;;;3.10;2.00;;;28.10;39.80;;;;;;4943148;28;20289;-47
2022/06/03 09:56:04;;;;;;;5.53;2.50;;;28.40;39.40;;;;;;4964057;28;20209;-47
2022/06/03 09:58:33;;;;;;;2.27;2.07;;;28.70;38.90;;;;;;4951618;28;20209;-47
2022/06/03 10:01:03;;;;;;;2.63;2.37;;;28.90;38.90;;;;;;4960738;28;20222;-47
2022/06/03 10:03:30;;;;;;;5.30;2.43;;;29.10;38.60;;;;;;4964380;28;20945;-47
2022/06/03 10:05:59;;;;;;;3.50;2.17;;;29.30;38.30;;;;;;4932066;28;20249;-48
2022/06/03 10:12:48;;;;;;;2.58;2.38;;;29.40;38.10;;;;;;4965332;28;20265;-48
2022/06/03 10:14:03;;;;;;;5.07;2.72;;;29.20;38.80;;;;;;4969324;28;20229;-48
2022/06/03 10:16:31;;;;;;;3.47;2.50;;;29.10;38.80;;;;;;4971368;28;20455;-48
2022/06/03 10:18:58;;;;;;;2.77;2.03;;;29.00;38.60;;;;;;4972369;28;20652;-48
2022/06/03 10:21:26;;;;;;;4.43;2.80;;;29.00;38.80;;;;;;4958650;28;20651;-48
2022/06/03 10:23:53;;;;;;;4.97;2.77;;;28.90;39.00;;;;;;4971334;28;20218;-48
2022/06/03 10:26:35;;;;;;;2.90;2.70;;;28.70;39.20;;;;;;4953608;28;20206;-48
2022/06/03 10:29:16;;;;;;;3.83;3.00;;;28.70;39.50;;;;;;4970459;28;20210;-48
2022/06/03 10:31:54;;;;;;;4.07;2.67;;;28.60;39.70;;;;;;4967019;28;20618;-48
2022/06/03 10:34:39;;;;;;;4.77;2.93;;;28.60;40.10;;;;;;4949596;28;20233;-48
2022/06/03 10:37:10;;;;;;;3.03;2.73;;;28.60;40.30;;;;;;4969640;28;20659;-48
2022/06/03 10:39:41;;;;;;;5.80;2.73;;;28.50;40.50;;;;;;4952569;28;20214;-48
2022/06/03 10:42:18;;;;;;;2.67;2.47;;;28.30;40.90;;;;;;4970518;28;20209;-48
2022/06/03 10:44:48;;;;;;;5.33;3.20;;;28.10;41.00;;;;;;4969837;28;20213;-48
2022/06/03 10:47:22;;;;;;;5.87;2.73;;;28.00;41.90;;;;;;4971315;28;20248;-48
2022/06/03 10:49:58;;;;;;;2.60;2.40;;;27.70;41.90;;;;;;4968906;28;20234;-47
2022/06/03 11:01:06;;;;;;;2.77;2.40;;;26.90;43.50;;;;;;4962180;28;21013;-47
2022/06/03 11:03:35;;;;;;;2.90;2.60;;;26.80;44.00;;;;;;4968256;28;20464;-47
2022/06/03 11:06:14;;;;;;;3.30;3.10;;;26.70;44.30;;;;;;4970575;28;20461;-48
2022/06/03 11:08:48;;;;;;;4.53;3.10;;;26.50;44.40;;;;;;4969881;28;20497;-48
2022/06/03 11:11:32;;;;;;;3.80;3.40;;;26.40;44.90;;;;;;4971232;28;20973;-47
2022/06/03 11:14:24;;;;;;;7.70;3.13;;;26.40;45.00;;;;;;4971239;28;20502;-47
2022/06/03 11:17:07;;;;;;;3.17;2.97;;;26.30;45.00;;;;;;4967426;28;20489;-47
2022/06/03 11:19:49;;;;;;;3.90;3.60;;;26.20;46.00;;;;;;4967648;28;20465;-48
2022/06/03 11:22:32;;;;;;;3.63;3.30;;;26.10;45.60;;;;;;4964043;28;20927;-47
2022/06/03 11:25:11;;;;;;;4.97;3.30;;;26.00;45.70;;;;;;4962821;28;20560;-48
2022/06/03 11:28:12;;;;;;;4.60;2.80;;;25.90;45.80;;;;;;4967809;28;20461;-48
2022/06/03 11:31:01;;;;;;;7.00;3.57;;;25.80;46.30;;;;;;4967310;28;20869;-49
2022/06/03 11:33:49;;;;;;;4.07;3.43;;;25.90;46.50;;;;;;4969698;28;20465;-48
2022/06/03 11:36:27;;;;;;;4.87;3.70;;;25.90;46.60;;;;;;4941773;28;21081;-47
2022/06/03 11:39:14;;;;;;;4.27;3.80;;;25.80;46.50;;;;;;4968564;28;20544;-48
2022/06/03 11:41:45;;;;;;;4.40;3.27;;;25.80;46.80;;;;;;4950406;28;20457;-48
2022/06/03 11:44:25;;;;;;;4.50;2.90;;;25.80;46.60;;;;;;4964642;28;20453;-48
2022/06/03 11:46:59;;;;;;;3.93;3.53;;;25.80;47.10;;;;;;4971450;28;20860;-48
2022/06/03 11:49:26;;;;;;;3.57;3.20;;;25.90;47.30;;;;;;4969106;28;20521;-47
2022/06/03 11:51:54;;;;;;;3.53;3.23;;;26.00;47.50;;;;;;4970389;28;20532;-48
2022/06/03 11:54:25;;;;;;;6.23;3.33;;;26.00;47.10;;;;;;4962923;28;20883;-48
2022/06/03 11:56:52;;;;;;;4.47;3.10;;;26.00;46.90;;;;;;4966799;28;20469;-47
2022/06/03 11:59:45;;;;;;;3.47;3.17;;;26.00;46.70;;;;;;4966128;28;20457;-47
2022/06/03 12:02:45;;;;;;;5.40;3.67;;;26.00;46.90;;;;;;4948176;28;20469;-47
2022/06/03 12:05:21;;;;;;;4.00;3.60;;;26.00;46.90;;;;;;4960181;28;20539;-48
2022/06/03 12:08:00;;;;;;;3.67;3.30;;;26.00;46.90;;;;;;4967328;28;20473;-49
2022/06/03 12:10:54;;;;;;;3.00;2.80;;;26.00;46.90;;;;;;4946105;28;20465;-48
2022/06/03 12:13:30;;;;;;;3.73;3.33;;;26.00;47.80;;;;;;4967726;28;20950;-49
2022/06/03 12:16:14;;;;;;;3.70;3.40;;;26.00;47.80;;;;;;4971293;28;20501;-48
2022/06/03 12:19:02;;;;;;;4.00;3.80;;;26.10;47.30;;;;;;4945570;28;20975;-48
2022/06/03 12:21:31;;;;;;;3.47;3.17;;;26.20;47.10;;;;;;4970451;28;20978;-48
2022/06/03 12:24:37;;;;;;;2.87;2.60;;;26.20;47.10;;;;;;4967374;28;20548;-48
2022/06/03 12:27:16;;;;;;;3.23;3.03;;;26.30;47.50;;;;;;4968654;28;20465;-47
2022/06/03 12:29:51;;;;;;;3.60;3.30;;;26.40;46.80;;;;;;4958315;28;20465;-47
2022/06/03 12:32:28;;;;;;;6.43;3.50;;;26.40;47.10;;;;;;4948641;28;20559;-48
2022/06/03 12:35:33;;;;;;;5.20;3.90;;;26.40;47.10;;;;;;4947673;28;20576;-47
2022/06/03 12:38:19;;;;;;;55.27;8.93;;;26.40;47.30;;;;;;4965248;28;20548;-48
2022/06/03 12:40:58;;;;;;;12.70;3.70;;;26.50;47.80;;;;;;4967617;28;20460;-48
2022/06/03 12:43:45;;;;;;;6.70;4.27;;;26.60;47.50;;;;;;4963502;28;20461;-48
2022/06/03 12:46:40;;;;;;;3.60;3.40;;;26.60;47.60;;;;;;4947261;28;20505;-47
2022/06/03 12:49:37;;;;;;;4.53;3.40;;;26.70;47.40;;;;;;4941451;28;21157;-48
2022/06/03 12:52:11;;;;;;;4.67;3.30;;;26.80;47.90;;;;;;4957655;28;20457;-47
2022/06/03 12:54:50;;;;;;;6.43;4.33;;;26.70;47.70;;;;;;4968269;28;20881;-47
2022/06/03 12:57:22;;;;;;;3.60;3.37;;;26.70;47.30;;;;;;4967302;28;20834;-49
2022/06/03 12:59:55;;;;;;;4.00;3.37;;;26.70;47.20;;;;;;4950213;28;20576;-47
2022/06/03 13:02:25;;;;;;;7.87;3.93;;;26.70;47.60;;;;;;4948186;28;22686;-47
2022/06/03 13:04:54;;;;;;;3.70;3.40;;;26.70;47.70;;;;;;4950081;28;20457;-47
2022/06/03 13:07:27;;;;;;;5.17;3.47;;;26.80;47.90;;;;;;4967036;28;20469;-47
2022/06/03 13:10:04;;;;;;;4.00;3.20;;;26.80;47.60;;;;;;4963013;28;20472;-47
2022/06/03 13:12:31;;;;;;;3.53;3.33;;;26.80;47.70;;;;;;4969494;28;20984;-47
2022/06/03 13:15:16;;;;;;;7.07;3.70;;;26.80;48.10;;;;;;4943699;28;20576;-49
2022/06/03 13:18:12;;;;;;;5.63;3.37;;;26.80;48.10;;;;;;4949416;28;21096;-48
2022/06/03 13:20:39;;;;;;;4.03;3.57;;;26.70;48.00;;;;;;4967056;28;20536;-48
2022/06/03 13:23:31;;;;;;;4.47;3.77;;;26.70;48.10;;;;;;4968700;28;20513;-48
2022/06/03 13:26:22;;;;;;;3.80;3.33;;;26.70;48.00;;;;;;4966044;28;20471;-48
2022/06/03 13:29:08;;;;;;;3.57;3.20;;;26.70;48.10;;;;;;4950268;28;20534;-47
2022/06/03 13:31:56;;;;;;;3.90;3.57;;;26.70;48.20;;;;;;4968500;28;20472;-48
2022/06/03 13:34:40;;;;;;;5.97;3.40;;;26.60;48.30;;;;;;4943644;28;20477;-49
2022/06/03 13:37:32;;;;;;;3.83;3.50;;;26.60;48.90;;;;;;4968917;28;20929;-48
2022/06/03 13:40:00;;;;;;;4.70;3.37;;;26.60;48.40;;;;;;4967777;28;21042;-48
2022/06/03 13:43:07;;;;;;;3.77;3.40;;;26.50;48.20;;;;;;4967938;28;20457;-47
2022/06/03 13:45:55;;;;;;;5.60;3.30;;;26.50;48.10;;;;;;4954715;28;20954;-47
2022/06/03 13:48:41;;;;;;;3.43;3.13;;;26.50;48.50;;;;;;4966923;28;20520;-48
2022/06/03 13:51:29;;;;;;;4.23;3.83;;;26.50;49.00;;;;;;4965242;28;20576;-48
2022/06/03 13:54:00;;;;;;;4.47;4.07;;;26.40;48.40;;;;;;4967265;28;20520;-47
2022/06/03 13:56:29;;;;;;;3.97;3.50;;;26.40;48.60;;;;;;4966530;28;20493;-48
2022/06/03 13:58:59;;;;;;;3.90;3.60;;;26.30;48.90;;;;;;4969462;28;20536;-48
2022/06/03 14:01:52;;;;;;;3.57;3.37;;;26.30;48.60;;;;;;4964441;28;20646;-48
2022/06/03 14:04:29;;;;;;;3.63;3.20;;;26.20;48.90;;;;;;4968082;28;20945;-48
2022/06/03 14:07:03;;;;;;;4.20;3.80;;;26.10;49.20;;;;;;4967619;28;20457;-48
2022/06/03 14:09:36;;;;;;;4.50;4.10;;;26.20;50.20;;;;;;4948364;28;20461;-47
2022/06/03 14:12:05;;;;;;;3.90;3.50;;;26.10;49.50;;;;;;4964430;28;20468;-47
2022/06/03 14:14:44;;;;;;;4.27;3.87;;;26.10;49.20;;;;;;4964882;28;20473;-48
2022/06/03 14:17:16;;;;;;;4.17;3.80;;;26.00;49.70;;;;;;4956839;28;21000;-49
2022/06/03 14:19:51;;;;;;;4.07;3.77;;;26.00;50.00;;;;;;4961054;28;20990;-47
2022/06/03 14:22:39;;;;;;;5.30;3.90;;;25.90;51.00;;;;;;4966700;28;20559;-47
2022/06/03 14:25:24;;;;;;;4.33;3.93;;;25.80;51.40;;;;;;4962185;28;20824;-48
2022/06/03 14:28:21;;;;;;;6.73;3.93;;;25.80;51.00;;;;;;4946863;28;20901;-47
2022/06/03 14:31:26;;;;;;;5.07;3.73;;;25.70;51.10;;;;;;4927514;28;20535;-47
2022/06/03 14:33:56;;;;;;;4.80;4.30;;;25.70;51.20;;;;;;4961614;28;20472;-48